Time;durP1;ratioP1;P1;durP2;ratioP2;P2;SDS_P1;SDS_P2;PMS_P1;PMS_P2;Temp;Humidity;BMP_temperature;BMP_pressure;BME280_temperature;BME280_humidity;BME280_pressure;Samples;Min_cycle;Max_cycle;Signal;HPM_P1;HPM_P2
2024/01/25 00:00:53;;;;;;;;;0.00;0.00;;;;;14.13;100.00;102968.88;5135891;27;45554;-87
2024/01/25 00:03:18;;;;;;;;;0.00;0.00;;;;;14.12;100.00;102959.31;5136471;27;55852;-87
2024/01/25 00:05:44;;;;;;;;;0.00;0.00;;;;;14.09;100.00;102962.81;5136496;27;45303;-86
2024/01/25 00:08:09;;;;;;;;;0.00;0.00;;;;;14.08;100.00;102960.22;5136545;27;48457;-85
2024/01/25 00:10:34;;;;;;;;;0.00;0.00;;;;;14.03;100.00;102949.78;5136041;27;62345;-86
2024/01/25 00:13:00;;;;;;;;;0.00;0.00;;;;;14.02;100.00;102942.81;5134326;27;50762;-87
2024/01/25 00:15:25;;;;;;;;;0.00;0.00;;;;;14.00;100.00;102935.84;5136986;27;45375;-87
2024/01/25 00:17:50;;;;;;;;;3.00;3.00;;;;;13.99;100.00;102941.97;5114591;27;45513;-87
2024/01/25 00:20:16;;;;;;;;;0.00;0.00;;;;;13.96;100.00;102939.38;5115826;27;45552;-87
2024/01/25 00:22:41;;;;;;;;;0.00;0.00;;;;;13.98;100.00;102937.59;5114747;27;72307;-86
2024/01/25 00:25:07;;;;;;;;;0.00;0.00;;;;;13.95;100.00;102938.50;5098480;27;45208;-88
2024/01/25 00:27:32;;;;;;;;;0.00;0.00;;;;;13.94;100.00;102932.38;5115773;27;45301;-89
2024/01/25 00:29:58;;;;;;;;;0.00;0.00;;;;;13.94;100.00;102931.50;5134392;27;45600;-89
2024/01/25 00:32:23;;;;;;;;;0.00;0.00;;;;;13.91;100.00;102934.16;5115978;27;48081;-89
2024/01/25 00:34:49;;;;;;;;;0.00;0.00;;;;;13.90;100.00;102935.91;5136174;27;66182;-89
2024/01/25 00:37:15;;;;;;;;;0.00;0.00;;;;;13.87;100.00;102933.34;5119397;27;45449;-89
2024/01/25 00:39:40;;;;;;;;;0.00;0.00;;;;;13.87;100.00;102932.44;5118899;27;45572;-89
2024/01/25 00:42:06;;;;;;;;;0.00;0.00;;;;;13.84;100.00;102922.88;5119099;27;47173;-89
2024/01/25 00:44:32;;;;;;;;;0.00;0.00;;;;;13.83;100.00;102923.75;5136457;27;45333;-89
2024/01/25 00:46:58;;;;;;;;;0.00;0.00;;;;;13.83;100.00;102921.13;5136675;27;45401;-87
2024/01/25 00:49:23;;;;;;;;;0.00;0.00;;;;;13.80;100.00;102921.16;5133145;27;45575;-87
2024/01/25 00:51:49;;;;;;;;;0.00;0.00;;;;;13.78;100.00;102916.81;5099807;27;47112;-87
2024/01/25 00:54:15;;;;;;;;;0.00;0.00;;;;;13.79;100.00;102916.78;5124008;27;45287;-87
2024/01/25 00:56:41;;;;;;;;;0.00;0.00;;;;;13.77;100.00;102918.56;5140631;27;45776;-87
2024/01/25 00:59:06;;;;;;;;;0.00;0.00;;;;;13.77;100.00;102909.84;5141266;27;45267;-87
2024/01/25 01:01:32;;;;;;;;;0.00;0.00;;;;;13.78;100.00;102925.56;5121252;27;46950;-87
2024/01/25 01:03:58;;;;;;;;;0.00;0.00;;;;;13.73;100.00;102915.09;5141115;27;45458;-88
2024/01/25 01:06:24;;;;;;;;;0.00;0.00;;;;;13.77;100.00;102918.56;5122937;27;45361;-87
2024/01/25 01:08:50;;;;;;;;;0.00;0.00;;;;;13.75;100.00;102904.63;5122852;27;45428;-87
2024/01/25 01:11:15;;;;;;;;;0.00;0.00;;;;;13.76;100.00;102901.09;5140533;27;47647;-87
2024/01/25 01:13:41;;;;;;;;;0.00;0.00;;;;;13.75;100.00;102900.25;5104917;27;64053;-87
2024/01/25 01:16:06;;;;;;;;;0.00;0.00;;;;;13.74;100.00;102897.63;5139483;27;45498;-88
2024/01/25 01:18:32;;;;;;;;;0.00;0.00;;;;;13.78;100.00;102894.13;5116791;27;45713;-89
2024/01/25 01:20:57;;;;;;;;;0.00;0.00;;;;;13.78;100.00;102895.88;5121805;27;45862;-89
2024/01/25 01:23:23;;;;;;;;;0.00;0.00;;;;;13.74;100.00;102890.69;5122688;27;45303;-88
2024/01/25 01:25:48;;;;;;;;;0.00;0.00;;;;;13.73;100.00;102878.47;5104156;27;66392;-87
2024/01/25 01:28:14;;;;;;;;;0.00;0.00;;;;;13.74;100.00;102882.81;5122610;27;45371;-88
2024/01/25 01:30:41;;;;;;;;;0.00;0.00;;;;;13.75;100.00;102888.91;5105261;27;47095;-88
2024/01/25 01:33:08;;;;;;;;;0.00;0.00;;;;;13.76;100.00;102893.25;5139764;27;45384;-88
2024/01/25 01:35:33;;;;;;;;;0.00;0.00;;;;;13.73;100.00;102893.31;5140738;27;45420;-88
2024/01/25 01:37:58;;;;;;;;;0.00;0.00;;;;;13.74;100.00;102898.53;5121398;27;68397;-88
2024/01/25 01:40:24;;;;;;;;;0.00;0.00;;;;;13.75;100.00;102899.38;5103461;27;73032;-88
2024/01/25 01:42:49;;;;;;;;;0.00;0.00;;;;;13.76;100.00;102898.50;5104068;27;62542;-88
2024/01/25 01:45:14;;;;;;;;;0.00;0.00;;;;;13.73;100.00;102894.16;5138597;27;52669;-87
2024/01/25 01:47:40;;;;;;;;;0.00;0.00;;;;;13.74;100.00;102895.91;5139887;27;53081;-88
2024/01/25 01:50:06;;;;;;;;;0.00;0.00;;;;;13.75;100.00;102897.63;5102135;27;48066;-88
2024/01/25 01:52:32;;;;;;;;;0.00;0.00;;;;;13.75;100.00;102891.53;5100412;27;45498;-88
2024/01/25 01:54:57;;;;;;;;;0.00;0.00;;;;;13.73;100.00;102890.69;5100595;27;45380;-87
2024/01/25 01:57:23;;;;;;;;;0.00;0.00;;;;;13.75;100.00;102887.16;5100891;27;45398;-88
2024/01/25 01:59:50;;;;;;;;;0.00;0.00;;;;;13.75;100.00;102888.91;5100156;27;63940;-87
2024/01/25 02:02:15;;;;;;;;;0.00;0.00;;;;;13.70;100.00;102891.56;5085593;27;45696;-88
2024/01/25 02:04:40;;;;;;;;;0.00;0.00;;;;;13.70;100.00;102890.69;5103386;27;45461;-88
2024/01/25 02:07:07;;;;;;;;;0.00;0.00;;;;;13.67;100.00;102896.84;5121565;27;45548;-88
2024/01/25 02:09:32;;;;;;;;;0.00;0.00;;;;;13.68;100.00;102897.69;5121182;27;46720;-87
2024/01/25 02:12:02;;;;;;;;;0.00;0.00;;;;;13.69;100.00;102891.59;5103839;27;45203;-87
2024/01/25 02:14:28;;;;;;;;;0.00;0.00;;;;;13.69;100.00;102894.22;5140060;27;45359;-88
2024/01/25 02:16:53;;;;;;;;;0.00;0.00;;;;;13.66;100.00;102900.31;5121498;27;45421;-88
2024/01/25 02:19:18;;;;;;;;;0.00;0.00;;;;;13.64;100.00;102899.47;5099764;27;47066;-87
2024/01/25 02:21:44;;;;;;;;;0.00;0.00;;;;;13.65;100.00;102902.94;5083444;27;45330;-88
2024/01/25 02:24:09;;;;;;;;;0.00;0.00;;;;;13.60;100.00;102878.56;5081887;27;66842;-88
2024/01/25 02:26:35;;;;;;;;;0.00;0.00;;;;;13.62;100.00;102895.13;5118054;27;52209;-88
2024/01/25 02:29:01;;;;;;;;;0.00;0.00;;;;;13.59;100.00;102884.69;5099856;27;48287;-88
2024/01/25 02:31:26;;;;;;;;;0.00;0.00;;;;;13.58;100.00;102888.16;5118379;27;45352;-88
2024/01/25 02:33:51;;;;;;;;;0.00;0.00;;;;;13.56;100.00;102893.44;5083128;27;45208;-88
2024/01/25 02:36:17;;;;;;;;;0.00;0.00;;;;;13.57;100.00;102892.53;5103413;27;53861;-88
2024/01/25 02:38:42;;;;;;;;;0.00;0.00;;;;;13.54;100.00;102895.19;5081809;27;69330;-88
2024/01/25 02:41:07;;;;;;;;;0.00;0.00;;;;;13.56;100.00;102898.66;5099892;27;46130;-88
2024/01/25 02:43:33;;;;;;;;;0.00;0.00;;;;;13.52;100.00;102896.91;5083125;27;45248;-87
2024/01/25 02:45:58;;;;;;;;;0.00;0.00;;;;;13.51;100.00;102889.97;5099641;27;52304;-88
2024/01/25 02:48:23;;;;;;;;;0.00;0.00;;;;;13.52;100.00;102891.69;5100001;27;62882;-87
2024/01/25 02:50:49;;;;;;;;;0.00;0.00;;;;;13.55;100.00;102897.78;5101747;27;67677;-87
2024/01/25 02:53:14;;;;;;;;;0.00;0.00;;;;;13.55;100.00;102895.16;5089171;27;66508;-88
2024/01/25 02:55:39;;;;;;;;;0.00;0.00;;;;;13.54;100.00;102890.81;5099810;27;45360;-88
2024/01/25 02:58:05;;;;;;;;;0.00;0.00;;;;;13.52;100.00;102886.44;5117862;27;46221;-88
2024/01/25 03:00:30;;;;;;;;;0.00;0.00;;;;;13.52;100.00;102881.22;5099016;27;61529;-88
2024/01/25 03:02:55;;;;;;;;;0.00;0.00;;;;;13.52;100.00;102879.50;5117958;27;45704;-88
2024/01/25 03:05:21;;;;;;;;;0.00;0.00;;;;;13.50;100.00;102877.75;5098526;27;62091;-87
2024/01/25 03:07:46;;;;;;;;;0.00;0.00;;;;;13.50;100.00;102876.03;5117286;27;45579;-87
2024/01/25 03:10:11;;;;;;;;;0.00;0.00;;;;;13.49;100.00;102879.50;5098802;27;68479;-87
2024/01/25 03:12:37;;;;;;;;;0.00;0.00;;;;;13.46;100.00;102882.13;5118016;27;45426;-87
2024/01/25 03:15:03;;;;;;;;;0.00;0.00;;;;;13.45;100.00;102882.16;5081706;27;63853;-87
2024/01/25 03:17:28;;;;;;;;;1.00;1.00;;;;;13.40;100.00;102874.34;5102484;27;48087;-88
2024/01/25 03:19:54;;;;;;;;;0.00;0.00;;;;;13.39;100.00;102876.97;5135017;27;66775;-88
2024/01/25 03:22:19;;;;;;;;;0.00;0.00;;;;;13.36;100.00;102872.63;5119555;27;45337;-88
2024/01/25 03:24:44;;;;;;;;;0.00;0.00;;;;;13.33;100.00;102877.88;5120368;27;46359;-88
2024/01/25 03:27:13;;;;;;;;;0.00;0.00;;;;;13.31;100.00;102871.78;5119750;27;45363;-88
2024/01/25 03:29:41;;;;;;;;;0.00;0.00;;;;;13.29;100.00;102866.53;5120280;27;45379;-88
2024/01/25 03:32:06;;;;;;;;;0.00;0.00;;;;;13.29;100.00;102871.75;5120470;27;45354;-89
2024/01/25 03:34:32;;;;;;;;;0.00;0.00;;;;;13.27;100.00;102864.81;5105861;27;45327;-88
2024/01/25 03:36:58;;;;;;;;;0.00;0.00;;;;;13.26;100.00;102870.91;5123737;27;45524;-88
2024/01/25 03:39:23;;;;;;;;;1.00;1.00;;;;;13.25;100.00;102866.56;5123184;27;63177;-88
2024/01/25 03:41:48;;;;;;;;;0.00;0.00;;;;;13.24;100.00;102870.03;5119414;27;52560;-88
2024/01/25 03:44:14;;;;;;;;;0.00;0.00;;;;;13.20;100.00;102858.72;5119075;27;62532;-88
2024/01/25 03:46:39;;;;;;;;;0.00;0.00;;;;;13.18;100.00;102863.09;5119534;27;48258;-88
2024/01/25 03:49:04;;;;;;;;;0.00;0.00;;;;;13.17;100.00;102862.25;5138084;27;45300;-87
2024/01/25 03:51:30;;;;;;;;;0.00;0.00;;;;;13.18;100.00;102865.72;5117909;27;54269;-87
2024/01/25 03:53:58;;;;;;;;;0.00;0.00;;;;;13.16;100.00;102865.72;5137445;27;45528;-88
2024/01/25 03:56:23;;;;;;;;;0.00;0.00;;;;;13.16;100.00;102865.72;5137952;27;46374;-88
2024/01/25 03:58:50;;;;;;;;;0.00;0.00;;;;;13.16;100.00;102860.50;5119646;27;45346;-88
2024/01/25 04:01:15;;;;;;;;;0.00;0.00;;;;;13.17;100.00;102859.63;5119740;27;45425;-87
2024/01/25 04:03:41;;;;;;;;;0.00;0.00;;;;;13.15;100.00;102850.94;5138077;27;45460;-88
2024/01/25 04:06:06;;;;;;;;;0.00;0.00;;;;;13.16;100.00;102852.66;5117191;27;48177;-87
2024/01/25 04:08:31;;;;;;;;;0.00;0.00;;;;;13.16;100.00;102850.03;5119353;27;45569;-87
2024/01/25 04:10:57;;;;;;;;;0.00;0.00;;;;;13.16;100.00;102851.78;5137278;27;57034;-87
2024/01/25 04:13:22;;;;;;;;;0.00;0.00;;;;;13.13;100.00;102847.47;5136901;27;60655;-87
2024/01/25 04:15:47;;;;;;;;;0.00;0.00;;;;;13.15;100.00;102853.53;5135730;27;61661;-87
2024/01/25 04:18:13;;;;;;;;;0.00;0.00;;;;;13.14;100.00;102854.41;5118721;27;61723;-88
2024/01/25 04:20:38;;;;;;;;;0.00;0.00;;;;;13.14;100.00;102848.31;5118449;27;49924;-87
2024/01/25 04:23:03;;;;;;;;;0.00;0.00;;;;;13.13;100.00;102854.41;5114087;27;45508;-87
2024/01/25 04:25:29;;;;;;;;;0.00;0.00;;;;;13.13;100.00;102862.25;5115070;27;56921;-87
2024/01/25 04:27:54;;;;;;;;;0.00;0.00;;;;;13.13;100.00;102857.91;5098014;27;65788;-87
2024/01/25 04:30:19;;;;;;;;;0.00;0.00;;;;;13.14;100.00;102864.88;5119129;27;45290;-88
2024/01/25 04:32:45;;;;;;;;;0.00;0.00;;;;;13.13;100.00;102857.91;5102205;27;45459;-88
2024/01/25 04:35:10;;;;;;;;;0.00;0.00;;;;;13.13;100.00;102852.69;5119853;27;46623;-87
2024/01/25 04:37:36;;;;;;;;;0.00;0.00;;;;;13.10;100.00;102847.47;5101206;27;64520;-88
2024/01/25 04:40:02;;;;;;;;;0.00;0.00;;;;;13.12;100.00;102850.06;5116489;27;45427;-87
2024/01/25 04:42:28;;;;;;;;;0.00;0.00;;;;;13.12;100.00;102848.31;5122329;27;45223;-88
2024/01/25 04:44:53;;;;;;;;;0.00;0.00;;;;;13.12;100.00;102842.22;5122266;27;46165;-88
2024/01/25 04:47:19;;;;;;;;;0.00;0.00;;;;;13.13;100.00;102846.56;5140916;27;45462;-88
2024/01/25 04:49:44;;;;;;;;;0.00;0.00;;;;;13.13;100.00;102847.47;5122347;27;45455;-88
2024/01/25 04:52:09;;;;;;;;;0.00;0.00;;;;;13.14;100.00;102840.47;5132687;27;45529;-88
2024/01/25 04:54:35;;;;;;;;;0.00;0.00;;;;;13.15;100.00;102842.22;5096524;27;54402;-88
2024/01/25 04:57:01;;;;;;;;;0.00;0.00;;;;;13.14;100.00;102843.94;5097890;27;45490;-88
2024/01/25 04:59:26;;;;;;;;;0.00;0.00;;;;;13.14;100.00;102840.47;5098274;27;45374;-88
2024/01/25 05:01:53;;;;;;;;;0.00;0.00;;;;;13.15;100.00;102829.16;5097834;27;53069;-88
2024/01/25 05:04:19;;;;;;;;;0.00;0.00;;;;;13.14;100.00;102827.41;5098053;27;45396;-88
2024/01/25 05:06:44;;;;;;;;;0.00;0.00;;;;;13.13;100.00;102823.94;5075501;27;60236;-89
2024/01/25 05:09:10;;;;;;;;;0.00;0.00;;;;;13.13;100.00;102829.16;5076881;28;54849;-88
2024/01/25 05:11:39;;;;;;;;;0.00;0.00;;;;;13.11;100.00;102817.84;5077197;28;60278;-88
2024/01/25 05:14:05;;;;;;;;;0.00;0.00;;;;;13.11;100.00;102820.44;5077612;28;47991;-88
2024/01/25 05:16:30;;;;;;;;;0.00;0.00;;;;;13.11;100.00;102823.06;5077439;28;45470;-89
2024/01/25 05:18:55;;;;;;;;;0.00;0.00;;;;;13.13;100.00;102813.47;5085255;27;52791;-88
2024/01/25 05:21:21;;;;;;;;;0.00;0.00;;;;;13.14;100.00;102815.19;5096960;27;64275;-88
2024/01/25 05:23:46;;;;;;;;;0.00;0.00;;;;;13.13;100.00;102802.13;5096359;27;47167;-89
2024/01/25 05:26:11;;;;;;;;;0.00;0.00;;;;;13.13;100.00;102803.00;5097489;27;45455;-88
2024/01/25 05:28:37;;;;;;;;;0.00;0.00;;;;;13.12;100.00;102803.00;5099124;27;46679;-88
2024/01/25 05:31:02;;;;;;;;;0.00;0.00;;;;;13.10;100.00;102799.53;5096514;27;68664;-89
2024/01/25 05:33:27;;;;;;;;;0.00;0.00;;;;;13.09;100.00;102803.91;5097502;27;47574;-89
2024/01/25 05:35:53;;;;;;;;;0.00;0.00;;;;;13.07;100.00;102802.16;5098969;27;45439;-89
2024/01/25 05:38:18;;;;;;;;;0.00;0.00;;;;;13.07;100.00;102796.94;5099145;27;45387;-88
2024/01/25 05:40:44;;;;;;;;;0.00;0.00;;;;;13.09;100.00;102797.78;5097493;27;45550;-88
2024/01/25 05:43:09;;;;;;;;;0.00;0.00;;;;;13.09;100.00;102795.19;5095884;27;46531;-88
2024/01/25 05:45:34;;;;;;;;;0.00;0.00;;;;;13.09;100.00;102793.44;5096752;27;45406;-88
2024/01/25 05:48:00;;;;;;;;;0.00;0.00;;;;;13.12;100.00;102790.78;5113371;27;71188;-87
2024/01/25 05:50:25;;;;;;;;;0.00;0.00;;;;;13.14;100.00;102796.03;5115254;27;45593;-87
2024/01/25 05:52:50;;;;;;;;;0.00;0.00;;;;;13.12;100.00;102793.41;5097133;27;48206;-87
2024/01/25 05:55:16;;;;;;;;;0.00;0.00;;;;;13.13;100.00;102799.50;5096916;27;65711;-87
2024/01/25 05:57:43;;;;;;;;;0.00;0.00;;;;;14.18;100.00;102803.84;5096826;27;45310;-87
2024/01/25 06:00:11;;;;;;;;;0.00;0.00;;;;;14.97;100.00;102820.38;5117108;27;45543;-88
2024/01/25 06:02:36;;;;;;;;;0.00;0.00;;;;;15.26;100.00;102827.78;5117726;27;46240;-87
2024/01/25 06:05:01;;;;;;;;;0.00;0.00;;;;;15.38;100.00;102816.25;5099680;27;70046;-87
2024/01/25 06:07:27;;;;;;;;;0.00;0.00;;;;;15.42;100.00;102815.31;5095597;27;52868;-87
2024/01/25 06:09:53;;;;;;;;;0.00;0.00;;;;;15.48;100.00;102814.34;5098365;27;45421;-87
2024/01/25 06:12:18;;;;;;;;;0.00;0.00;;;;;15.51;100.00;102808.16;5096622;27;62606;-87
2024/01/25 06:14:44;;;;;;;;;0.00;0.00;;;;;13.86;100.00;102819.00;5100186;27;45411;-87
2024/01/25 06:17:09;;;;;;;;;0.00;0.00;;;;;13.63;100.00;102810.50;5118681;27;58089;-87
2024/01/25 06:19:34;;;;;;;;;0.00;0.00;;;;;15.22;100.00;102815.63;5116764;27;69725;-88
2024/01/25 06:22:00;;;;;;;;;0.00;0.00;;;;;14.17;100.00;102816.09;5116716;27;65455;-87
2024/01/25 06:24:25;;;;;;;;;0.00;0.00;;;;;13.71;100.00;102819.16;5113575;27;45281;-87
2024/01/25 06:26:51;;;;;;;;;0.00;0.00;;;;;13.60;100.00;102816.63;5117729;27;50602;-88
2024/01/25 06:29:16;;;;;;;;;0.00;0.00;;;;;13.55;100.00;102808.81;5116560;27;45506;-84
2024/01/25 06:31:43;;;;;;;;;0.00;0.00;;;;;13.53;100.00;102796.63;5117622;27;72934;-89
2024/01/25 06:34:08;;;;;;;;;0.00;0.00;;;;;13.60;100.00;102798.31;5117349;27;45342;-88
2024/01/25 06:36:33;;;;;;;;;0.00;0.00;;;;;13.52;100.00;102805.34;5117921;27;45421;-92
2024/01/25 06:38:59;;;;;;;;;0.00;0.00;;;;;13.52;100.00;102802.72;5117906;27;45434;-89
2024/01/25 06:41:24;;;;;;;;;0.00;0.00;;;;;13.51;100.00;102811.47;5111637;27;73838;-84
2024/01/25 06:43:50;;;;;;;;;0.00;0.00;;;;;13.50;100.00;102809.72;5095724;27;45402;-83
2024/01/25 06:46:15;;;;;;;;;0.00;0.00;;;;;13.53;100.00;102809.72;5096670;27;69208;-83
2024/01/25 06:48:40;;;;;;;;;0.00;0.00;;;;;13.53;100.00;102807.09;5098287;27;59007;-82
2024/01/25 06:51:06;;;;;;;;;0.00;0.00;;;;;13.56;100.00;102809.69;5132949;27;46082;-83
2024/01/25 06:53:32;;;;;;;;;0.00;0.00;;;;;13.55;100.00;102800.09;5136798;27;66297;-81
2024/01/25 06:55:57;;;;;;;;;0.00;0.00;;;;;13.54;100.00;102793.16;5138644;27;45385;-83
2024/01/25 06:58:22;;;;;;;;;0.00;0.00;;;;;13.56;100.00;102786.16;5136705;27;45502;-82
2024/01/25 07:00:48;;;;;;;;;0.00;0.00;;;;;13.58;100.00;102783.50;5119328;27;62209;-84
2024/01/25 07:03:15;;;;;;;;;0.00;0.00;;;;;13.59;100.00;102785.25;5120070;27;45480;-87
2024/01/25 07:05:40;;;;;;;;;0.00;0.00;;;;;13.61;100.00;102783.47;5120489;27;45330;-85
2024/01/25 07:08:08;;;;;;;;;0.00;0.00;;;;;13.62;100.00;102782.59;5115170;27;45398;-86
2024/01/25 07:10:36;;;;;;;;;0.00;0.00;;;;;13.63;100.00;102794.78;5118493;27;46241;-90
2024/01/25 07:13:01;;;;;;;;;0.00;0.00;;;;;13.63;100.00;102785.22;5118045;27;45352;-93
2024/01/25 07:15:27;;;;;;;;;0.00;0.00;;;;;13.65;100.00;102788.69;5099579;27;45369;-87
2024/01/25 07:17:52;;;;;;;;;0.00;0.00;;;;;13.67;100.00;102783.41;5116258;27;57438;-87
2024/01/25 07:20:17;;;;;;;;;0.00;0.00;;;;;13.66;100.00;102786.94;5098630;27;71420;-88
2024/01/25 07:22:43;;;;;;;;;0.00;0.00;;;;;13.67;100.00;102791.25;5117483;27;46268;-87
2024/01/25 07:25:08;;;;;;;;;0.00;0.00;;;;;13.68;100.00;102791.25;5112829;27;70075;-86
2024/01/25 07:27:34;;;;;;;;;0.00;0.00;;;;;13.67;100.00;102786.91;5102120;27;45377;-86
2024/01/25 07:29:59;;;;;;;;;0.00;0.00;;;;;13.70;100.00;102788.63;5119801;27;46253;-86
2024/01/25 07:32:24;;;;;;;;;0.00;0.00;;;;;13.81;100.00;102802.47;5119962;27;45322;-87
2024/01/25 07:34:50;;;;;;;;;0.00;0.00;;;;;13.72;100.00;102797.31;5102234;27;46384;-87
2024/01/25 07:37:16;;;;;;;;;0.00;0.00;;;;;13.91;100.00;102801.53;5138408;27;45363;-87
2024/01/25 07:39:42;;;;;;;;;0.00;0.00;;;;;13.95;100.00;102789.25;5136811;27;46073;-87
2024/01/25 07:42:07;;;;;;;;;0.00;0.00;;;;;13.80;100.00;102792.00;5118841;27;62603;-87
2024/01/25 07:44:32;;;;;;;;;0.00;0.00;;;;;13.78;100.00;102788.56;5120147;27;45354;-89
2024/01/25 07:47:00;;;;;;;;;0.00;0.00;;;;;13.74;100.00;102778.13;5119602;27;45393;-87
2024/01/25 07:49:25;;;;;;;;;0.00;0.00;;;;;13.78;100.00;102778.06;5102638;27;47201;-87
2024/01/25 07:51:51;;;;;;;;;0.00;0.00;;;;;13.79;100.00;102767.59;5118569;27;64347;-85
2024/01/25 07:54:17;;;;;;;;;0.00;0.00;;;;;13.82;100.00;102770.19;5116625;27;45547;-86
2024/01/25 07:56:42;;;;;;;;;0.00;0.00;;;;;13.83;100.00;102774.53;5117054;27;45436;-84
2024/01/25 07:59:07;;;;;;;;;0.00;0.00;;;;;13.85;100.00;102782.38;5111356;27;65841;-85
2024/01/25 08:01:32;;;;;;;;;0.00;0.00;;;;;13.89;100.00;102781.44;5111385;27;67748;-85
2024/01/25 08:03:59;;;;;;;;;0.00;0.00;;;;;13.90;100.00;102783.19;5137923;27;46490;-84
2024/01/25 08:06:26;;;;;;;;;0.00;0.00;;;;;13.91;100.00;102779.69;5138725;27;45505;-85
2024/01/25 08:08:51;;;;;;;;;0.00;0.00;;;;;13.93;100.00;102785.81;5115546;27;46356;-85
2024/01/25 08:11:19;;;;;;;;;0.00;0.00;;;;;13.94;100.00;102780.53;5132511;27;45601;-85
2024/01/25 08:13:44;;;;;;;;;0.00;0.00;;;;;13.97;100.00;102784.88;5119656;27;45428;-85
2024/01/25 08:16:13;;;;;;;;;0.00;0.00;;;;;14.00;100.00;102784.81;5111657;27;66631;-85
2024/01/25 08:18:39;;;;;;;;;0.00;0.00;;;;;14.03;100.00;102789.19;5140486;27;46509;-84
2024/01/25 08:21:05;;;;;;;;;0.00;0.00;;;;;14.04;100.00;102781.31;5138953;27;45492;-85
2024/01/25 08:23:30;;;;;;;;;0.00;0.00;;;;;14.07;100.00;102785.63;5113669;27;45360;-84
2024/01/25 08:25:56;;;;;;;;;0.00;0.00;;;;;14.08;100.00;102783.00;5130201;27;66199;-84
2024/01/25 08:28:21;;;;;;;;;0.00;0.00;;;;;14.12;100.00;102779.47;5120493;27;67916;-85
2024/01/25 08:30:47;;;;;;;;;0.00;0.00;;;;;14.15;100.00;102783.78;5140769;27;45701;-84
2024/01/25 08:33:13;;;;;;;;;0.00;0.00;;;;;14.20;100.00;102784.59;5118545;27;45330;-85
2024/01/25 08:35:40;;;;;;;;;0.00;0.00;;;;;14.23;100.00;102783.72;5141234;27;45441;-85
2024/01/25 08:38:06;;;;;;;;;0.00;0.00;;;;;14.26;100.00;102784.56;5120871;27;45471;-85
2024/01/25 08:40:32;;;;;;;;;0.00;0.00;;;;;14.31;100.00;102787.13;5134584;27;45627;-84
2024/01/25 08:42:57;;;;;;;;;0.00;0.00;;;;;14.32;100.00;102786.25;5135680;27;45385;-85
2024/01/25 08:45:23;;;;;;;;;0.00;0.00;;;;;14.30;100.00;102780.13;5140266;27;45536;-84
2024/01/25 08:47:49;;;;;;;;;0.00;0.00;;;;;14.35;100.00;102788.81;5140701;27;45479;-85
2024/01/25 08:50:15;;;;;;;;;0.00;0.00;;;;;14.38;100.00;102799.25;5139066;27;45425;-85
2024/01/25 08:52:40;;;;;;;;;0.00;0.00;;;;;14.40;100.00;102794.88;5119929;27;45415;-84
2024/01/25 08:55:07;;;;;;;;;0.00;0.00;;;;;14.39;100.00;102800.97;5110254;27;45780;-85
2024/01/25 08:57:32;;;;;;;;;0.00;0.00;;;;;14.30;100.00;102793.22;5129072;27;47454;-84
2024/01/25 09:00:00;;;;;;;;;0.00;0.00;;;;;14.35;100.00;102796.66;5116449;27;45514;-85
2024/01/25 09:02:29;;;;;;;;;0.00;0.00;;;;;14.33;100.00;102793.19;5113846;27;47310;-86
2024/01/25 09:04:55;;;;;;;;;0.00;0.00;;;;;14.46;100.00;102801.78;5119664;27;45453;-85
2024/01/25 09:07:20;;;;;;;;;0.00;0.00;;;;;14.53;100.00;102791.19;5117184;27;45511;-85
2024/01/25 09:09:46;;;;;;;;;0.00;0.00;;;;;14.59;100.00;102795.53;5107058;27;65162;-85
2024/01/25 09:12:12;;;;;;;;;0.00;0.00;;;;;14.63;100.00;102797.22;5135417;27;45513;-87
2024/01/25 09:14:38;;;;;;;;;0.00;0.00;;;;;14.64;100.00;102798.09;5107687;27;45469;-87
2024/01/25 09:17:04;;;;;;;;;0.00;0.00;;;;;14.65;100.00;102802.44;5121945;27;46730;-85
2024/01/25 09:19:30;;;;;;;;;0.00;0.00;;;;;14.70;100.00;102795.38;5120463;27;45936;-90
2024/01/25 09:21:58;;;;;;;;;0.00;0.00;;;;;14.75;100.00;102805.81;5112036;27;45461;-86
2024/01/25 09:24:36;;;;;;;;;0.00;0.00;;;;;14.77;100.00;102799.66;5139318;27;45543;-86
2024/01/25 09:27:02;;;;;;;;;0.00;0.00;;;;;14.79;100.00;102784.78;5139297;27;45699;-86
2024/01/25 09:29:27;;;;;;;;;0.00;0.00;;;;;14.81;100.00;102790.00;5140690;27;45458;-86
2024/01/25 09:31:54;;;;;;;;;0.00;0.00;;;;;14.84;100.00;102796.06;5140004;27;45448;-87
2024/01/25 09:34:22;;;;;;;;;0.00;0.00;;;;;14.85;100.00;102787.31;5140387;27;45443;-88
2024/01/25 09:36:47;;;;;;;;;0.00;0.00;;;;;14.89;100.00;102789.00;5138559;27;59288;-83
2024/01/25 09:39:14;;;;;;;;;0.00;0.00;;;;;14.94;100.00;102791.56;5135438;27;73207;-83
2024/01/25 09:41:39;;;;;;;;;0.00;0.00;;;;;14.94;100.00;102790.69;5118675;27;45644;-81
2024/01/25 09:44:08;;;;;;;;;0.00;0.00;;;;;14.98;100.00;102790.63;5137430;27;45422;-81
2024/01/25 09:46:33;;;;;;;;;0.00;0.00;;;;;14.98;100.00;102787.13;5136359;27;45402;-80
2024/01/25 09:48:59;;;;;;;;;0.00;0.00;;;;;15.00;100.00;102791.47;5118873;27;45482;-81
2024/01/25 09:51:25;;;;;;;;;0.00;0.00;;;;;14.99;100.00;102794.09;5120352;27;45456;-81
2024/01/25 09:53:51;;;;;;;;;0.00;0.00;;;;;14.96;100.00;102786.28;5102513;27;45628;-82
2024/01/25 09:56:20;;;;;;;;;0.00;0.00;;;;;14.96;100.00;102789.78;5103777;27;71581;-81
2024/01/25 09:58:45;;;;;;;;;0.00;0.00;;;;;14.96;100.00;102791.53;5131741;27;45494;-79
2024/01/25 10:01:18;;;;;;;;;0.00;0.00;;;;;14.99;100.00;102800.22;5117366;27;47074;-81
2024/01/25 10:03:47;;;;;;;;;0.00;0.00;;;;;15.04;100.00;102808.00;5119789;27;46966;-80
2024/01/25 10:06:13;;;;;;;;;0.00;0.00;;;;;15.05;100.00;102802.75;5120425;27;47012;-81
2024/01/25 10:08:38;;;;;;;;;0.00;0.00;;;;;15.11;100.00;102801.78;5138343;27;45437;-84
2024/01/25 10:11:04;;;;;;;;;0.00;0.00;;;;;15.16;100.00;102813.09;5118796;27;45397;-84
2024/01/25 10:13:30;;;;;;;;;0.00;0.00;;;;;15.22;100.00;102814.75;5120233;27;45388;-86
2024/01/25 10:15:56;;;;;;;;;0.00;0.00;;;;;15.27;100.00;102818.19;5107450;27;58625;-85
2024/01/25 10:18:27;;;;;;;;;0.00;0.00;;;;;15.33;100.00;102817.22;5124646;27;45270;-84
2024/01/25 10:20:54;;;;;;;;;0.00;0.00;;;;;15.38;100.00;102825.84;5139362;27;45329;-84
2024/01/25 10:23:19;;;;;;;;;0.00;0.00;;;;;15.43;100.00;102817.06;5115955;27;45451;-83
2024/01/25 10:25:44;;;;;;;;;0.00;0.00;;;;;15.48;100.00;102814.34;5128807;27;58074;-84
2024/01/25 10:28:11;;;;;;;;;0.00;0.00;;;;;15.53;100.00;102815.13;5117321;27;45403;-83
2024/01/25 10:30:36;;;;;;;;;0.00;0.00;;;;;15.60;100.00;102816.78;5120109;27;45450;-83
2024/01/25 10:33:04;;;;;;;;;0.00;0.00;;;;;15.64;100.00;102814.97;5137159;27;45501;-83
2024/01/25 10:35:30;;;;;;;;;0.00;0.00;;;;;15.66;100.00;102816.66;5137388;27;45562;-82
2024/01/25 10:37:55;;;;;;;;;0.00;0.00;;;;;15.65;100.00;102817.53;5115862;27;45490;-82
2024/01/25 10:40:21;;;;;;;;;0.00;0.00;;;;;15.65;100.00;102817.53;5116764;27;45195;-83
2024/01/25 10:42:47;;;;;;;;;0.00;0.00;;;;;15.64;100.00;102814.97;5116374;27;45384;-82
2024/01/25 10:45:13;;;;;;;;;0.00;0.00;;;;;15.66;100.00;102814.03;5132139;27;45448;-82
2024/01/25 10:47:40;;;;;;;;;0.00;0.00;;;;;15.73;100.00;102803.41;5133799;27;45480;-84
2024/01/25 10:50:09;;;;;;;;;0.00;0.00;;;;;15.79;100.00;102808.59;5130363;27;45391;-82
2024/01/25 10:52:35;;;;;;;;;0.00;0.00;;;;;15.84;100.00;102804.13;5112392;27;45512;-82
2024/01/25 10:55:01;;;;;;;;;0.00;0.00;;;;;15.85;100.00;102806.72;5095860;27;46375;-82
2024/01/25 10:57:26;;;;;;;;;0.00;0.00;;;;;17.32;100.00;102801.88;5094479;27;45421;-82
2024/01/25 10:59:52;;;;;;;;;0.00;0.00;;;;;16.30;100.00;102807.66;5081870;27;55697;-83
2024/01/25 11:02:20;;;;;;;;;0.00;0.00;;;;;16.29;100.00;102806.78;5074200;27;70373;-83
2024/01/25 11:04:54;;;;;;;;;0.00;0.00;;;;;16.33;100.00;102808.44;5078465;27;73563;-85
2024/01/25 11:07:20;;;;;;;;;0.00;0.00;;;;;16.35;100.00;102797.91;5103000;27;45360;-84
2024/01/25 11:09:48;;;;;;;;;0.00;0.00;;;;;16.38;100.00;102795.19;5086152;27;45403;-82